sensor_id;sensor_type;location;lat;lon;timestamp;temperature;humidity
52895;DHT22;38759;53.396;6.722;2022-10-30T00:01:59;13.60;99.90
52895;DHT22;38759;53.396;6.722;2022-10-30T00:04:24;13.50;99.90
52895;DHT22;38759;53.396;6.722;2022-10-30T00:06:50;13.50;99.90
52895;DHT22;38759;53.396;6.722;2022-10-30T00:09:16;13.40;99.90
52895;DHT22;38759;53.396;6.722;2022-10-30T00:11:42;13.40;99.90
52895;DHT22;38759;53.396;6.722;2022-10-30T00:14:08;13.40;99.90
52895;DHT22;38759;53.396;6.722;2022-10-30T00:16:34;13.40;99.90
52895;DHT22;38759;53.396;6.722;2022-10-30T00:19:00;13.40;99.90
52895;DHT22;38759;53.396;6.722;2022-10-30T00:21:25;13.30;99.90
52895;DHT22;38759;53.396;6.722;2022-10-30T00:23:52;13.30;99.90
52895;DHT22;38759;53.396;6.722;2022-10-30T00:26:20;13.20;99.90
52895;DHT22;38759;53.396;6.722;2022-10-30T00:28:53;13.20;99.90
52895;DHT22;38759;53.396;6.722;2022-10-30T00:31:20;13.10;99.90
52895;DHT22;38759;53.396;6.722;2022-10-30T00:33:50;13.10;99.90
52895;DHT22;38759;53.396;6.722;2022-10-30T00:36:17;13.10;99.90
52895;DHT22;38759;53.396;6.722;2022-10-30T00:38:43;13.10;99.90
52895;DHT22;38759;53.396;6.722;2022-10-30T00:41:20;13.00;99.90
52895;DHT22;38759;53.396;6.722;2022-10-30T00:43:46;13.10;99.90
52895;DHT22;38759;53.396;6.722;2022-10-30T00:46:17;13.20;99.90
52895;DHT22;38759;53.396;6.722;2022-10-30T00:48:47;13.10;99.90
52895;DHT22;38759;53.396;6.722;2022-10-30T00:51:13;13.10;99.90
52895;DHT22;38759;53.396;6.722;2022-10-30T00:53:39;13.00;99.90
52895;DHT22;38759;53.396;6.722;2022-10-30T00:56:07;13.10;99.90
52895;DHT22;38759;53.396;6.722;2022-10-30T00:58:40;13.10;99.90
52895;DHT22;38759;53.396;6.722;2022-10-30T01:01:15;13.10;99.90
52895;DHT22;38759;53.396;6.722;2022-10-30T01:03:41;13.20;99.90
52895;DHT22;38759;53.396;6.722;2022-10-30T01:06:10;13.10;99.90
52895;DHT22;38759;53.396;6.722;2022-10-30T01:08:37;13.20;99.90
52895;DHT22;38759;53.396;6.722;2022-10-30T01:11:03;13.20;99.90
52895;DHT22;38759;53.396;6.722;2022-10-30T01:13:31;13.10;99.90
52895;DHT22;38759;53.396;6.722;2022-10-30T01:24:50;13.10;99.90
52895;DHT22;38759;53.396;6.722;2022-10-30T01:35:46;13.10;99.90
52895;DHT22;38759;53.396;6.722;2022-10-30T01:38:20;13.10;99.90
52895;DHT22;38759;53.396;6.722;2022-10-30T01:40:47;13.00;99.90
52895;DHT22;38759;53.396;6.722;2022-10-30T01:43:13;12.90;99.90
52895;DHT22;38759;53.396;6.722;2022-10-30T01:45:54;12.90;99.90
52895;DHT22;38759;53.396;6.722;2022-10-30T01:54:04;13.00;99.90
52895;DHT22;38759;53.396;6.722;2022-10-30T01:59:36;13.00;99.90
52895;DHT22;38759;53.396;6.722;2022-10-30T02:02:03;13.00;99.90
52895;DHT22;38759;53.396;6.722;2022-10-30T02:04:30;12.90;99.90
52895;DHT22;38759;53.396;6.722;2022-10-30T02:06:55;13.00;99.90
52895;DHT22;38759;53.396;6.722;2022-10-30T02:09:21;13.00;99.90
52895;DHT22;38759;53.396;6.722;2022-10-30T02:11:48;13.00;99.90
52895;DHT22;38759;53.396;6.722;2022-10-30T02:14:20;13.00;99.90
52895;DHT22;38759;53.396;6.722;2022-10-30T02:16:49;13.00;99.90
52895;DHT22;38759;53.396;6.722;2022-10-30T02:19:16;13.00;99.90
52895;DHT22;38759;53.396;6.722;2022-10-30T02:21:42;12.90;99.90
52895;DHT22;38759;53.396;6.722;2022-10-30T02:24:07;12.90;99.90
52895;DHT22;38759;53.396;6.722;2022-10-30T02:26:33;12.90;99.90
52895;DHT22;38759;53.396;6.722;2022-10-30T02:28:59;12.80;99.90
52895;DHT22;38759;53.396;6.722;2022-10-30T02:31:24;12.70;99.90
52895;DHT22;38759;53.396;6.722;2022-10-30T02:33:50;12.70;99.90
52895;DHT22;38759;53.396;6.722;2022-10-30T02:36:15;12.70;99.90
52895;DHT22;38759;53.396;6.722;2022-10-30T02:38:42;12.70;99.90
52895;DHT22;38759;53.396;6.722;2022-10-30T02:41:08;12.70;99.90
52895;DHT22;38759;53.396;6.722;2022-10-30T02:43:34;12.70;99.90
52895;DHT22;38759;53.396;6.722;2022-10-30T02:46:00;12.60;99.90
52895;DHT22;38759;53.396;6.722;2022-10-30T02:48:25;12.60;99.90
52895;DHT22;38759;53.396;6.722;2022-10-30T02:50:51;12.50;99.90
52895;DHT22;38759;53.396;6.722;2022-10-30T02:53:16;12.50;99.90
52895;DHT22;38759;53.396;6.722;2022-10-30T02:55:42;12.40;99.90
52895;DHT22;38759;53.396;6.722;2022-10-30T02:58:08;12.40;99.90
52895;DHT22;38759;53.396;6.722;2022-10-30T03:00:33;12.30;99.90
52895;DHT22;38759;53.396;6.722;2022-10-30T03:02:59;12.40;99.90
52895;DHT22;38759;53.396;6.722;2022-10-30T03:05:25;12.40;99.90
52895;DHT22;38759;53.396;6.722;2022-10-30T03:07:50;12.40;99.90
52895;DHT22;38759;53.396;6.722;2022-10-30T03:10:17;12.40;99.90
52895;DHT22;38759;53.396;6.722;2022-10-30T03:12:43;12.40;99.90
52895;DHT22;38759;53.396;6.722;2022-10-30T03:15:09;12.30;99.90
52895;DHT22;38759;53.396;6.722;2022-10-30T03:17:34;12.30;99.90
52895;DHT22;38759;53.396;6.722;2022-10-30T03:20:00;12.30;99.90
52895;DHT22;38759;53.396;6.722;2022-10-30T03:22:26;12.30;99.90
52895;DHT22;38759;53.396;6.722;2022-10-30T03:24:52;12.30;99.90
52895;DHT22;38759;53.396;6.722;2022-10-30T03:27:17;12.30;99.90
52895;DHT22;38759;53.396;6.722;2022-10-30T03:29:43;12.20;99.90
52895;DHT22;38759;53.396;6.722;2022-10-30T03:32:10;12.30;99.90
52895;DHT22;38759;53.396;6.722;2022-10-30T03:34:36;12.10;99.90
52895;DHT22;38759;53.396;6.722;2022-10-30T03:37:02;12.10;99.90
52895;DHT22;38759;53.396;6.722;2022-10-30T03:39:28;12.10;99.90
52895;DHT22;38759;53.396;6.722;2022-10-30T03:41:53;12.10;99.90
52895;DHT22;38759;53.396;6.722;2022-10-30T03:44:19;12.10;99.90
52895;DHT22;38759;53.396;6.722;2022-10-30T03:46:45;12.10;99.90
52895;DHT22;38759;53.396;6.722;2022-10-30T03:49:10;12.10;99.90
52895;DHT22;38759;53.396;6.722;2022-10-30T03:51:36;12.00;99.90
52895;DHT22;38759;53.396;6.722;2022-10-30T03:54:01;12.10;99.90
52895;DHT22;38759;53.396;6.722;2022-10-30T03:56:27;12.00;99.90
52895;DHT22;38759;53.396;6.722;2022-10-30T03:58:53;12.00;99.90
52895;DHT22;38759;53.396;6.722;2022-10-30T04:01:18;12.00;99.90
52895;DHT22;38759;53.396;6.722;2022-10-30T04:03:44;12.00;99.90
52895;DHT22;38759;53.396;6.722;2022-10-30T04:06:10;11.90;99.90
52895;DHT22;38759;53.396;6.722;2022-10-30T04:08:36;11.90;99.90
52895;DHT22;38759;53.396;6.722;2022-10-30T04:11:01;11.90;99.90
52895;DHT22;38759;53.396;6.722;2022-10-30T04:13:27;11.90;99.90
52895;DHT22;38759;53.396;6.722;2022-10-30T04:15:53;12.00;99.90
52895;DHT22;38759;53.396;6.722;2022-10-30T04:18:18;11.90;99.90
52895;DHT22;38759;53.396;6.722;2022-10-30T04:20:45;11.90;99.90
52895;DHT22;38759;53.396;6.722;2022-10-30T04:23:15;11.90;99.90
52895;DHT22;38759;53.396;6.722;2022-10-30T04:25:42;12.00;99.90
52895;DHT22;38759;53.396;6.722;2022-10-30T04:28:08;12.00;99.90
52895;DHT22;38759;53.396;6.722;2022-10-30T04:30:34;12.00;99.90
52895;DHT22;38759;53.396;6.722;2022-10-30T04:33:03;12.00;99.90
52895;DHT22;38759;53.396;6.722;2022-10-30T04:35:31;12.00;99.90
52895;DHT22;38759;53.396;6.722;2022-10-30T04:37:59;12.10;99.90
52895;DHT22;38759;53.396;6.722;2022-10-30T04:40:27;12.10;99.90
52895;DHT22;38759;53.396;6.722;2022-10-30T04:42:53;12.10;99.90
52895;DHT22;38759;53.396;6.722;2022-10-30T04:45:19;12.10;99.90
52895;DHT22;38759;53.396;6.722;2022-10-30T04:47:45;12.10;99.90
52895;DHT22;38759;53.396;6.722;2022-10-30T04:50:11;12.10;99.90
52895;DHT22;38759;53.396;6.722;2022-10-30T04:52:38;12.10;99.90
52895;DHT22;38759;53.396;6.722;2022-10-30T04:55:04;12.10;99.90
52895;DHT22;38759;53.396;6.722;2022-10-30T04:57:30;12.10;99.90
52895;DHT22;38759;53.396;6.722;2022-10-30T04:59:56;12.10;99.90
52895;DHT22;38759;53.396;6.722;2022-10-30T05:02:22;12.10;99.90
52895;DHT22;38759;53.396;6.722;2022-10-30T05:04:48;12.00;99.90
52895;DHT22;38759;53.396;6.722;2022-10-30T05:07:14;12.10;99.90
52895;DHT22;38759;53.396;6.722;2022-10-30T05:09:41;12.00;99.90
52895;DHT22;38759;53.396;6.722;2022-10-30T05:12:06;12.00;99.90
52895;DHT22;38759;53.396;6.722;2022-10-30T05:14:32;12.10;99.90
52895;DHT22;38759;53.396;6.722;2022-10-30T05:16:58;12.10;99.90
52895;DHT22;38759;53.396;6.722;2022-10-30T05:19:24;12.10;99.90
52895;DHT22;38759;53.396;6.722;2022-10-30T05:21:50;12.20;99.90
52895;DHT22;38759;53.396;6.722;2022-10-30T05:24:16;12.20;99.90
52895;DHT22;38759;53.396;6.722;2022-10-30T05:26:42;12.30;99.90
52895;DHT22;38759;53.396;6.722;2022-10-30T05:29:08;12.30;99.90
52895;DHT22;38759;53.396;6.722;2022-10-30T05:31:33;12.20;99.90
52895;DHT22;38759;53.396;6.722;2022-10-30T05:33:59;12.20;99.90
52895;DHT22;38759;53.396;6.722;2022-10-30T05:36:25;12.20;99.90
52895;DHT22;38759;53.396;6.722;2022-10-30T05:38:51;12.10;99.90
52895;DHT22;38759;53.396;6.722;2022-10-30T05:41:16;12.10;99.90
52895;DHT22;38759;53.396;6.722;2022-10-30T05:43:42;12.20;99.90
52895;DHT22;38759;53.396;6.722;2022-10-30T05:46:08;12.10;99.90
52895;DHT22;38759;53.396;6.722;2022-10-30T05:48:33;12.10;99.90
52895;DHT22;38759;53.396;6.722;2022-10-30T05:50:59;12.10;99.90
52895;DHT22;38759;53.396;6.722;2022-10-30T05:53:25;12.10;99.90
52895;DHT22;38759;53.396;6.722;2022-10-30T05:55:54;12.10;99.90
52895;DHT22;38759;53.396;6.722;2022-10-30T05:58:20;12.00;99.90
52895;DHT22;38759;53.396;6.722;2022-10-30T06:00:45;12.00;99.90
52895;DHT22;38759;53.396;6.722;2022-10-30T06:03:11;11.90;99.90
52895;DHT22;38759;53.396;6.722;2022-10-30T06:05:37;11.80;99.90
52895;DHT22;38759;53.396;6.722;2022-10-30T06:08:05;11.70;99.90
52895;DHT22;38759;53.396;6.722;2022-10-30T06:10:30;11.60;99.90
52895;DHT22;38759;53.396;6.722;2022-10-30T06:12:58;11.50;99.90
52895;DHT22;38759;53.396;6.722;2022-10-30T06:15:24;11.50;99.90
52895;DHT22;38759;53.396;6.722;2022-10-30T06:17:50;11.50;99.90
52895;DHT22;38759;53.396;6.722;2022-10-30T06:20:17;11.50;99.90
52895;DHT22;38759;53.396;6.722;2022-10-30T06:23:04;11.40;99.90
52895;DHT22;38759;53.396;6.722;2022-10-30T06:25:31;11.40;99.90
52895;DHT22;38759;53.396;6.722;2022-10-30T06:27:56;11.40;99.90
52895;DHT22;38759;53.396;6.722;2022-10-30T06:30:23;11.40;99.90
52895;DHT22;38759;53.396;6.722;2022-10-30T06:32:49;11.40;99.90
52895;DHT22;38759;53.396;6.722;2022-10-30T06:35:14;11.40;99.90
52895;DHT22;38759;53.396;6.722;2022-10-30T06:37:45;11.50;99.90
52895;DHT22;38759;53.396;6.722;2022-10-30T06:40:11;11.40;99.90
52895;DHT22;38759;53.396;6.722;2022-10-30T06:42:48;11.40;99.90
52895;DHT22;38759;53.396;6.722;2022-10-30T06:45:19;11.40;99.90
52895;DHT22;38759;53.396;6.722;2022-10-30T06:47:44;11.40;99.90
52895;DHT22;38759;53.396;6.722;2022-10-30T06:50:13;11.50;99.90
52895;DHT22;38759;53.396;6.722;2022-10-30T06:52:39;11.50;99.90
52895;DHT22;38759;53.396;6.722;2022-10-30T06:55:05;11.60;99.90
52895;DHT22;38759;53.396;6.722;2022-10-30T06:57:31;11.50;99.90
52895;DHT22;38759;53.396;6.722;2022-10-30T06:59:56;11.50;99.90
52895;DHT22;38759;53.396;6.722;2022-10-30T07:02:22;11.60;99.90
52895;DHT22;38759;53.396;6.722;2022-10-30T07:04:48;11.60;99.90
52895;DHT22;38759;53.396;6.722;2022-10-30T07:07:14;11.60;99.90
52895;DHT22;38759;53.396;6.722;2022-10-30T07:09:40;11.60;99.90
52895;DHT22;38759;53.396;6.722;2022-10-30T07:12:07;11.70;99.90
52895;DHT22;38759;53.396;6.722;2022-10-30T07:14:33;11.70;99.90
52895;DHT22;38759;53.396;6.722;2022-10-30T07:16:59;11.80;99.90
52895;DHT22;38759;53.396;6.722;2022-10-30T07:19:25;11.90;99.90
52895;DHT22;38759;53.396;6.722;2022-10-30T07:21:50;11.90;99.90
52895;DHT22;38759;53.396;6.722;2022-10-30T07:24:16;11.90;99.90
52895;DHT22;38759;53.396;6.722;2022-10-30T07:26:42;12.00;99.90
52895;DHT22;38759;53.396;6.722;2022-10-30T07:29:07;12.00;99.90
52895;DHT22;38759;53.396;6.722;2022-10-30T07:31:33;12.00;99.90
52895;DHT22;38759;53.396;6.722;2022-10-30T07:33:59;12.00;99.90
52895;DHT22;38759;53.396;6.722;2022-10-30T07:36:24;11.90;99.90
52895;DHT22;38759;53.396;6.722;2022-10-30T07:38:51;11.90;99.90
52895;DHT22;38759;53.396;6.722;2022-10-30T07:41:17;12.00;99.90
52895;DHT22;38759;53.396;6.722;2022-10-30T07:43:43;12.00;99.90
52895;DHT22;38759;53.396;6.722;2022-10-30T07:46:09;12.00;99.90
52895;DHT22;38759;53.396;6.722;2022-10-30T07:48:34;12.00;99.90
52895;DHT22;38759;53.396;6.722;2022-10-30T07:51:00;12.00;99.90
52895;DHT22;38759;53.396;6.722;2022-10-30T07:53:26;12.10;99.90
52895;DHT22;38759;53.396;6.722;2022-10-30T07:55:52;12.10;99.90
52895;DHT22;38759;53.396;6.722;2022-10-30T07:58:17;12.20;99.90
52895;DHT22;38759;53.396;6.722;2022-10-30T08:00:43;12.20;99.90
52895;DHT22;38759;53.396;6.722;2022-10-30T08:03:10;12.30;99.90
52895;DHT22;38759;53.396;6.722;2022-10-30T08:05:35;12.30;99.90
52895;DHT22;38759;53.396;6.722;2022-10-30T08:08:01;12.40;99.90
52895;DHT22;38759;53.396;6.722;2022-10-30T08:10:27;12.40;99.90
52895;DHT22;38759;53.396;6.722;2022-10-30T08:12:53;12.40;99.90
52895;DHT22;38759;53.396;6.722;2022-10-30T08:15:18;12.50;99.90
52895;DHT22;38759;53.396;6.722;2022-10-30T08:17:46;12.50;99.90
52895;DHT22;38759;53.396;6.722;2022-10-30T08:20:14;12.60;99.90
52895;DHT22;38759;53.396;6.722;2022-10-30T08:22:47;12.60;99.90
52895;DHT22;38759;53.396;6.722;2022-10-30T08:25:14;12.80;99.90
52895;DHT22;38759;53.396;6.722;2022-10-30T08:30:25;12.80;99.90
52895;DHT22;38759;53.396;6.722;2022-10-30T08:32:55;12.90;99.90
52895;DHT22;38759;53.396;6.722;2022-10-30T08:35:20;13.00;99.90
52895;DHT22;38759;53.396;6.722;2022-10-30T08:37:46;13.10;99.90
52895;DHT22;38759;53.396;6.722;2022-10-30T08:40:12;13.20;99.90
52895;DHT22;38759;53.396;6.722;2022-10-30T08:42:38;13.20;99.90
52895;DHT22;38759;53.396;6.722;2022-10-30T08:45:05;13.30;99.90
52895;DHT22;38759;53.396;6.722;2022-10-30T08:47:31;13.40;99.90
52895;DHT22;38759;53.396;6.722;2022-10-30T08:49:56;13.50;99.90
52895;DHT22;38759;53.396;6.722;2022-10-30T08:52:22;13.50;99.90
52895;DHT22;38759;53.396;6.722;2022-10-30T08:54:48;13.60;99.90
52895;DHT22;38759;53.396;6.722;2022-10-30T08:57:13;13.80;99.90
52895;DHT22;38759;53.396;6.722;2022-10-30T08:59:39;13.80;99.90
52895;DHT22;38759;53.396;6.722;2022-10-30T09:02:05;13.80;99.90
52895;DHT22;38759;53.396;6.722;2022-10-30T09:04:32;13.90;99.90
52895;DHT22;38759;53.396;6.722;2022-10-30T09:06:59;14.00;99.90
52895;DHT22;38759;53.396;6.722;2022-10-30T09:09:25;14.10;99.90
52895;DHT22;38759;53.396;6.722;2022-10-30T09:11:51;14.20;99.90
52895;DHT22;38759;53.396;6.722;2022-10-30T09:14:16;14.20;99.90
52895;DHT22;38759;53.396;6.722;2022-10-30T09:16:42;14.40;99.90
52895;DHT22;38759;53.396;6.722;2022-10-30T09:19:09;14.50;99.90
52895;DHT22;38759;53.396;6.722;2022-10-30T09:21:34;14.50;99.90
